sensor_id;sensor_type;location;lat;lon;timestamp;temperature;humidity
17423;DHT22;8829;47.932;7.810;2023-04-24T00:00:51;11.80;99.90
17423;DHT22;8829;47.932;7.810;2023-04-24T00:03:17;11.90;99.90
17423;DHT22;8829;47.932;7.810;2023-04-24T00:05:46;11.90;99.90
17423;DHT22;8829;47.932;7.810;2023-04-24T00:08:14;12.00;99.90
17423;DHT22;8829;47.932;7.810;2023-04-24T00:10:41;12.00;99.90
17423;DHT22;8829;47.932;7.810;2023-04-24T00:13:08;12.00;99.90
17423;DHT22;8829;47.932;7.810;2023-04-24T00:15:34;12.00;99.90
17423;DHT22;8829;47.932;7.810;2023-04-24T00:18:01;12.00;99.90
17423;DHT22;8829;47.932;7.810;2023-04-24T00:20:28;12.00;99.90
17423;DHT22;8829;47.932;7.810;2023-04-24T00:22:55;11.90;99.90
17423;DHT22;8829;47.932;7.810;2023-04-24T00:25:23;11.90;99.90
17423;DHT22;8829;47.932;7.810;2023-04-24T00:27:50;11.90;99.90
17423;DHT22;8829;47.932;7.810;2023-04-24T00:30:16;11.80;99.90
17423;DHT22;8829;47.932;7.810;2023-04-24T00:32:43;11.80;99.90
17423;DHT22;8829;47.932;7.810;2023-04-24T00:35:10;11.80;99.90
17423;DHT22;8829;47.932;7.810;2023-04-24T00:37:36;11.80;99.90
17423;DHT22;8829;47.932;7.810;2023-04-24T00:40:04;11.70;99.90
17423;DHT22;8829;47.932;7.810;2023-04-24T00:42:33;11.70;99.90
17423;DHT22;8829;47.932;7.810;2023-04-24T00:45:00;11.60;99.90
17423;DHT22;8829;47.932;7.810;2023-04-24T00:47:28;11.50;99.90
17423;DHT22;8829;47.932;7.810;2023-04-24T00:49:55;11.60;99.90
17423;DHT22;8829;47.932;7.810;2023-04-24T00:52:22;11.60;99.90
17423;DHT22;8829;47.932;7.810;2023-04-24T00:54:49;11.50;99.90
17423;DHT22;8829;47.932;7.810;2023-04-24T00:57:16;11.50;99.90
17423;DHT22;8829;47.932;7.810;2023-04-24T00:59:45;11.70;99.90
17423;DHT22;8829;47.932;7.810;2023-04-24T01:02:12;11.70;99.90
17423;DHT22;8829;47.932;7.810;2023-04-24T01:04:41;11.70;99.90
17423;DHT22;8829;47.932;7.810;2023-04-24T01:07:08;11.60;99.90
17423;DHT22;8829;47.932;7.810;2023-04-24T01:09:37;11.60;99.90
17423;DHT22;8829;47.932;7.810;2023-04-24T01:12:05;11.70;99.90
17423;DHT22;8829;47.932;7.810;2023-04-24T01:14:33;11.70;99.90
17423;DHT22;8829;47.932;7.810;2023-04-24T01:17:01;11.60;99.90
17423;DHT22;8829;47.932;7.810;2023-04-24T01:19:28;11.60;99.90
17423;DHT22;8829;47.932;7.810;2023-04-24T01:21:58;11.60;99.90
17423;DHT22;8829;47.932;7.810;2023-04-24T01:24:26;11.60;99.90
17423;DHT22;8829;47.932;7.810;2023-04-24T01:26:53;11.60;99.90
17423;DHT22;8829;47.932;7.810;2023-04-24T01:29:20;11.60;99.90
17423;DHT22;8829;47.932;7.810;2023-04-24T01:31:47;11.60;99.90
17423;DHT22;8829;47.932;7.810;2023-04-24T01:34:14;11.60;99.90
17423;DHT22;8829;47.932;7.810;2023-04-24T01:36:43;11.60;99.90
17423;DHT22;8829;47.932;7.810;2023-04-24T01:39:12;11.60;99.90
17423;DHT22;8829;47.932;7.810;2023-04-24T01:41:40;11.50;99.90
17423;DHT22;8829;47.932;7.810;2023-04-24T01:44:06;11.50;99.90
17423;DHT22;8829;47.932;7.810;2023-04-24T01:46:33;11.50;99.90
17423;DHT22;8829;47.932;7.810;2023-04-24T01:49:01;11.50;99.90
17423;DHT22;8829;47.932;7.810;2023-04-24T01:51:28;11.50;99.90
17423;DHT22;8829;47.932;7.810;2023-04-24T01:53:55;11.50;99.90
17423;DHT22;8829;47.932;7.810;2023-04-24T01:56:22;11.40;99.90
17423;DHT22;8829;47.932;7.810;2023-04-24T01:58:52;11.40;99.90
17423;DHT22;8829;47.932;7.810;2023-04-24T02:01:20;11.40;99.90
17423;DHT22;8829;47.932;7.810;2023-04-24T02:03:47;11.40;99.90
17423;DHT22;8829;47.932;7.810;2023-04-24T02:06:14;11.40;99.90
17423;DHT22;8829;47.932;7.810;2023-04-24T02:08:40;11.40;99.90
17423;DHT22;8829;47.932;7.810;2023-04-24T02:11:08;11.40;99.90
17423;DHT22;8829;47.932;7.810;2023-04-24T02:13:35;11.30;99.90
17423;DHT22;8829;47.932;7.810;2023-04-24T02:16:04;11.30;99.90
17423;DHT22;8829;47.932;7.810;2023-04-24T02:18:31;11.30;99.90
17423;DHT22;8829;47.932;7.810;2023-04-24T02:20:57;11.30;99.90
17423;DHT22;8829;47.932;7.810;2023-04-24T02:23:24;11.20;99.90
17423;DHT22;8829;47.932;7.810;2023-04-24T02:25:52;11.20;99.90
17423;DHT22;8829;47.932;7.810;2023-04-24T02:28:19;11.20;99.90
17423;DHT22;8829;47.932;7.810;2023-04-24T02:30:46;11.10;99.90
17423;DHT22;8829;47.932;7.810;2023-04-24T02:33:14;11.10;99.90
17423;DHT22;8829;47.932;7.810;2023-04-24T02:35:41;11.10;99.90
17423;DHT22;8829;47.932;7.810;2023-04-24T02:38:07;11.10;99.90
17423;DHT22;8829;47.932;7.810;2023-04-24T02:40:34;11.10;99.90
17423;DHT22;8829;47.932;7.810;2023-04-24T02:43:01;11.20;99.90
17423;DHT22;8829;47.932;7.810;2023-04-24T02:45:28;11.10;99.90
17423;DHT22;8829;47.932;7.810;2023-04-24T02:47:54;11.20;99.90
17423;DHT22;8829;47.932;7.810;2023-04-24T02:50:22;11.00;99.90
17423;DHT22;8829;47.932;7.810;2023-04-24T02:52:49;11.00;99.90
17423;DHT22;8829;47.932;7.810;2023-04-24T02:55:16;11.10;99.90
17423;DHT22;8829;47.932;7.810;2023-04-24T02:57:43;11.10;99.90
17423;DHT22;8829;47.932;7.810;2023-04-24T03:00:10;11.10;99.90
17423;DHT22;8829;47.932;7.810;2023-04-24T03:02:38;11.10;99.90
17423;DHT22;8829;47.932;7.810;2023-04-24T03:05:06;11.10;99.90
17423;DHT22;8829;47.932;7.810;2023-04-24T03:07:34;11.20;99.90
17423;DHT22;8829;47.932;7.810;2023-04-24T03:10:00;11.10;99.90
17423;DHT22;8829;47.932;7.810;2023-04-24T03:12:27;11.10;99.90
17423;DHT22;8829;47.932;7.810;2023-04-24T03:14:54;11.10;99.90
17423;DHT22;8829;47.932;7.810;2023-04-24T03:17:20;11.10;99.90
17423;DHT22;8829;47.932;7.810;2023-04-24T03:19:47;11.10;99.90
17423;DHT22;8829;47.932;7.810;2023-04-24T03:22:14;11.10;99.90
17423;DHT22;8829;47.932;7.810;2023-04-24T03:24:42;11.10;99.90
17423;DHT22;8829;47.932;7.810;2023-04-24T03:27:09;11.10;99.90
17423;DHT22;8829;47.932;7.810;2023-04-24T03:29:35;11.10;99.90
17423;DHT22;8829;47.932;7.810;2023-04-24T03:32:02;11.10;99.90
17423;DHT22;8829;47.932;7.810;2023-04-24T03:34:29;11.20;99.90
17423;DHT22;8829;47.932;7.810;2023-04-24T03:36:56;11.20;99.90
17423;DHT22;8829;47.932;7.810;2023-04-24T03:39:23;11.20;99.90
17423;DHT22;8829;47.932;7.810;2023-04-24T03:41:51;11.20;99.90
17423;DHT22;8829;47.932;7.810;2023-04-24T03:44:18;11.00;99.90
17423;DHT22;8829;47.932;7.810;2023-04-24T03:46:45;10.90;99.90
17423;DHT22;8829;47.932;7.810;2023-04-24T03:49:11;11.00;99.90
17423;DHT22;8829;47.932;7.810;2023-04-24T03:51:38;10.90;99.90
17423;DHT22;8829;47.932;7.810;2023-04-24T03:54:05;10.90;99.90
17423;DHT22;8829;47.932;7.810;2023-04-24T03:56:31;10.90;99.90
17423;DHT22;8829;47.932;7.810;2023-04-24T03:58:59;10.90;99.90
17423;DHT22;8829;47.932;7.810;2023-04-24T04:01:26;10.90;99.90
17423;DHT22;8829;47.932;7.810;2023-04-24T04:03:53;10.90;99.90
17423;DHT22;8829;47.932;7.810;2023-04-24T04:06:20;10.80;99.90
17423;DHT22;8829;47.932;7.810;2023-04-24T04:08:47;10.80;99.90
17423;DHT22;8829;47.932;7.810;2023-04-24T04:11:14;10.80;99.90
17423;DHT22;8829;47.932;7.810;2023-04-24T04:13:40;10.80;99.90
17423;DHT22;8829;47.932;7.810;2023-04-24T04:16:09;10.90;99.90
17423;DHT22;8829;47.932;7.810;2023-04-24T04:18:35;10.80;99.90
17423;DHT22;8829;47.932;7.810;2023-04-24T04:21:03;10.80;99.90
17423;DHT22;8829;47.932;7.810;2023-04-24T04:23:30;10.80;99.90
17423;DHT22;8829;47.932;7.810;2023-04-24T04:25:57;10.90;99.90
17423;DHT22;8829;47.932;7.810;2023-04-24T04:28:24;10.80;99.90
17423;DHT22;8829;47.932;7.810;2023-04-24T04:30:52;10.90;99.90
17423;DHT22;8829;47.932;7.810;2023-04-24T04:33:22;10.90;99.90
17423;DHT22;8829;47.932;7.810;2023-04-24T04:35:48;11.00;99.90
17423;DHT22;8829;47.932;7.810;2023-04-24T04:38:17;10.90;99.90
17423;DHT22;8829;47.932;7.810;2023-04-24T04:40:44;10.80;99.90
17423;DHT22;8829;47.932;7.810;2023-04-24T04:43:11;10.80;99.90
17423;DHT22;8829;47.932;7.810;2023-04-24T04:45:38;10.80;99.90
17423;DHT22;8829;47.932;7.810;2023-04-24T04:48:06;10.80;99.90
17423;DHT22;8829;47.932;7.810;2023-04-24T04:50:35;10.70;99.90
17423;DHT22;8829;47.932;7.810;2023-04-24T04:53:02;10.70;99.90
17423;DHT22;8829;47.932;7.810;2023-04-24T04:55:29;10.70;99.90
17423;DHT22;8829;47.932;7.810;2023-04-24T04:57:56;10.70;99.90
17423;DHT22;8829;47.932;7.810;2023-04-24T05:00:23;10.70;99.90
17423;DHT22;8829;47.932;7.810;2023-04-24T05:02:50;10.70;99.90
17423;DHT22;8829;47.932;7.810;2023-04-24T05:05:18;10.80;99.90
17423;DHT22;8829;47.932;7.810;2023-04-24T05:07:46;10.70;99.90
17423;DHT22;8829;47.932;7.810;2023-04-24T05:10:12;10.80;99.90
17423;DHT22;8829;47.932;7.810;2023-04-24T05:12:39;10.70;99.90
17423;DHT22;8829;47.932;7.810;2023-04-24T05:15:06;10.70;99.90
17423;DHT22;8829;47.932;7.810;2023-04-24T05:17:33;10.80;99.90
17423;DHT22;8829;47.932;7.810;2023-04-24T05:20:00;10.80;99.90
17423;DHT22;8829;47.932;7.810;2023-04-24T05:22:28;10.70;99.90
17423;DHT22;8829;47.932;7.810;2023-04-24T05:24:56;10.70;99.90
17423;DHT22;8829;47.932;7.810;2023-04-24T05:27:22;10.80;99.90
17423;DHT22;8829;47.932;7.810;2023-04-24T05:29:49;10.80;99.90
17423;DHT22;8829;47.932;7.810;2023-04-24T05:32:16;10.90;99.90
17423;DHT22;8829;47.932;7.810;2023-04-24T05:34:43;10.80;99.90
17423;DHT22;8829;47.932;7.810;2023-04-24T05:37:10;10.80;99.90
17423;DHT22;8829;47.932;7.810;2023-04-24T05:39:37;10.80;99.90
17423;DHT22;8829;47.932;7.810;2023-04-24T05:42:05;10.80;99.90
17423;DHT22;8829;47.932;7.810;2023-04-24T05:44:32;10.80;99.90
17423;DHT22;8829;47.932;7.810;2023-04-24T05:46:58;10.70;99.90
17423;DHT22;8829;47.932;7.810;2023-04-24T05:49:26;10.80;99.90
17423;DHT22;8829;47.932;7.810;2023-04-24T05:51:52;10.70;99.90
17423;DHT22;8829;47.932;7.810;2023-04-24T05:54:19;10.60;99.90
17423;DHT22;8829;47.932;7.810;2023-04-24T05:56:46;10.40;99.90
17423;DHT22;8829;47.932;7.810;2023-04-24T05:59:14;10.40;99.90
17423;DHT22;8829;47.932;7.810;2023-04-24T06:01:41;10.50;99.90
17423;DHT22;8829;47.932;7.810;2023-04-24T06:04:07;10.50;99.90
17423;DHT22;8829;47.932;7.810;2023-04-24T06:06:35;10.60;99.90
17423;DHT22;8829;47.932;7.810;2023-04-24T06:09:01;10.60;99.90
17423;DHT22;8829;47.932;7.810;2023-04-24T06:11:29;10.80;99.90
17423;DHT22;8829;47.932;7.810;2023-04-24T06:13:56;10.70;99.90
17423;DHT22;8829;47.932;7.810;2023-04-24T06:16:24;10.80;99.90
17423;DHT22;8829;47.932;7.810;2023-04-24T06:18:51;10.80;99.90
17423;DHT22;8829;47.932;7.810;2023-04-24T06:21:17;10.80;99.90
17423;DHT22;8829;47.932;7.810;2023-04-24T06:23:44;10.70;99.90
17423;DHT22;8829;47.932;7.810;2023-04-24T06:26:11;10.60;99.90
17423;DHT22;8829;47.932;7.810;2023-04-24T06:28:38;10.60;99.90
17423;DHT22;8829;47.932;7.810;2023-04-24T06:31:05;10.60;99.90
17423;DHT22;8829;47.932;7.810;2023-04-24T06:33:33;10.60;99.90
17423;DHT22;8829;47.932;7.810;2023-04-24T06:36:00;10.50;99.90
17423;DHT22;8829;47.932;7.810;2023-04-24T06:38:27;10.50;99.90
17423;DHT22;8829;47.932;7.810;2023-04-24T06:40:55;10.50;99.90
17423;DHT22;8829;47.932;7.810;2023-04-24T06:43:21;10.40;99.90
17423;DHT22;8829;47.932;7.810;2023-04-24T06:45:48;10.40;99.90
17423;DHT22;8829;47.932;7.810;2023-04-24T06:48:15;10.40;99.90
17423;DHT22;8829;47.932;7.810;2023-04-24T06:50:43;10.50;99.90
17423;DHT22;8829;47.932;7.810;2023-04-24T06:53:10;10.60;99.90
17423;DHT22;8829;47.932;7.810;2023-04-24T06:55:38;10.90;99.90
17423;DHT22;8829;47.932;7.810;2023-04-24T06:58:04;10.90;99.90
17423;DHT22;8829;47.932;7.810;2023-04-24T07:00:31;11.10;99.90
17423;DHT22;8829;47.932;7.810;2023-04-24T07:02:58;11.10;99.90
17423;DHT22;8829;47.932;7.810;2023-04-24T07:05:25;11.10;99.90
17423;DHT22;8829;47.932;7.810;2023-04-24T07:07:53;11.00;99.90
17423;DHT22;8829;47.932;7.810;2023-04-24T07:10:20;11.10;99.90
17423;DHT22;8829;47.932;7.810;2023-04-24T07:12:47;11.20;99.90
17423;DHT22;8829;47.932;7.810;2023-04-24T07:15:13;11.40;99.90
17423;DHT22;8829;47.932;7.810;2023-04-24T07:17:41;11.50;99.90
17423;DHT22;8829;47.932;7.810;2023-04-24T07:20:09;11.80;99.90
17423;DHT22;8829;47.932;7.810;2023-04-24T07:22:37;12.50;99.90
17423;DHT22;8829;47.932;7.810;2023-04-24T07:25:06;13.40;99.90
17423;DHT22;8829;47.932;7.810;2023-04-24T07:27:34;13.50;99.90
17423;DHT22;8829;47.932;7.810;2023-04-24T07:30:01;13.10;99.90
17423;DHT22;8829;47.932;7.810;2023-04-24T07:32:28;12.90;99.90
17423;DHT22;8829;47.932;7.810;2023-04-24T07:34:55;12.40;99.90
17423;DHT22;8829;47.932;7.810;2023-04-24T07:37:22;11.90;99.90
17423;DHT22;8829;47.932;7.810;2023-04-24T07:39:49;12.00;99.90
17423;DHT22;8829;47.932;7.810;2023-04-24T07:42:17;12.00;99.90
17423;DHT22;8829;47.932;7.810;2023-04-24T07:44:44;12.00;99.90
17423;DHT22;8829;47.932;7.810;2023-04-24T07:47:12;11.60;99.90
17423;DHT22;8829;47.932;7.810;2023-04-24T07:49:41;11.80;99.90
17423;DHT22;8829;47.932;7.810;2023-04-24T07:52:08;12.90;99.90
17423;DHT22;8829;47.932;7.810;2023-04-24T07:54:34;14.20;99.90
17423;DHT22;8829;47.932;7.810;2023-04-24T07:57:02;15.70;99.90
17423;DHT22;8829;47.932;7.810;2023-04-24T07:59:31;16.30;99.90
17423;DHT22;8829;47.932;7.810;2023-04-24T08:01:57;16.90;99.90
17423;DHT22;8829;47.932;7.810;2023-04-24T08:04:26;17.30;99.90
17423;DHT22;8829;47.932;7.810;2023-04-24T08:06:53;18.30;99.90
17423;DHT22;8829;47.932;7.810;2023-04-24T08:09:19;18.00;99.90
17423;DHT22;8829;47.932;7.810;2023-04-24T08:11:47;18.40;99.90
17423;DHT22;8829;47.932;7.810;2023-04-24T08:14:14;18.60;99.90
17423;DHT22;8829;47.932;7.810;2023-04-24T08:16:42;16.80;99.90
17423;DHT22;8829;47.932;7.810;2023-04-24T08:19:09;16.30;99.90
17423;DHT22;8829;47.932;7.810;2023-04-24T08:21:36;15.40;99.90
17423;DHT22;8829;47.932;7.810;2023-04-24T08:24:03;14.50;99.90
17423;DHT22;8829;47.932;7.810;2023-04-24T08:26:33;13.80;99.90
17423;DHT22;8829;47.932;7.810;2023-04-24T08:28:59;13.50;99.90
17423;DHT22;8829;47.932;7.810;2023-04-24T08:31:26;13.30;99.90
17423;DHT22;8829;47.932;7.810;2023-04-24T08:33:54;12.90;99.90
17423;DHT22;8829;47.932;7.810;2023-04-24T08:36:21;12.70;99.90
17423;DHT22;8829;47.932;7.810;2023-04-24T08:38:48;12.50;99.90
17423;DHT22;8829;47.932;7.810;2023-04-24T08:41:15;12.30;99.90
17423;DHT22;8829;47.932;7.810;2023-04-24T08:43:42;12.20;99.90
17423;DHT22;8829;47.932;7.810;2023-04-24T08:46:09;12.00;99.90
17423;DHT22;8829;47.932;7.810;2023-04-24T08:48:37;11.90;99.90
17423;DHT22;8829;47.932;7.810;2023-04-24T08:51:07;11.80;99.90
17423;DHT22;8829;47.932;7.810;2023-04-24T08:53:34;11.90;99.90
17423;DHT22;8829;47.932;7.810;2023-04-24T08:56:01;12.40;99.90
17423;DHT22;8829;47.932;7.810;2023-04-24T08:58:29;12.40;99.90
17423;DHT22;8829;47.932;7.810;2023-04-24T09:00:56;12.40;99.90
17423;DHT22;8829;47.932;7.810;2023-04-24T09:03:23;12.40;99.90
17423;DHT22;8829;47.932;7.810;2023-04-24T09:05:50;12.00;99.90
17423;DHT22;8829;47.932;7.810;2023-04-24T09:08:24;12.00;99.90
17423;DHT22;8829;47.932;7.810;2023-04-24T09:10:51;12.00;99.90
17423;DHT22;8829;47.932;7.810;2023-04-24T09:13:19;12.20;99.90
17423;DHT22;8829;47.932;7.810;2023-04-24T09:15:46;12.50;99.90
17423;DHT22;8829;47.932;7.810;2023-04-24T09:18:13;12.50;99.90
17423;DHT22;8829;47.932;7.810;2023-04-24T09:20:57;12.60;99.90
17423;DHT22;8829;47.932;7.810;2023-04-24T09:23:27;12.70;99.90
17423;DHT22;8829;47.932;7.810;2023-04-24T09:25:55;12.30;99.90
17423;DHT22;8829;47.932;7.810;2023-04-24T09:28:26;12.30;99.90
17423;DHT22;8829;47.932;7.810;2023-04-24T09:31:03;12.20;99.90
17423;DHT22;8829;47.932;7.810;2023-04-24T09:33:30;12.10;99.90
17423;DHT22;8829;47.932;7.810;2023-04-24T09:35:56;11.90;99.90
17423;DHT22;8829;47.932;7.810;2023-04-24T09:38:33;11.90;99.90
17423;DHT22;8829;47.932;7.810;2023-04-24T09:41:01;11.60;99.90
17423;DHT22;8829;47.932;7.810;2023-04-24T09:43:29;11.40;99.90
17423;DHT22;8829;47.932;7.810;2023-04-24T09:45:57;11.10;99.90
17423;DHT22;8829;47.932;7.810;2023-04-24T09:48:30;11.10;99.90
17423;DHT22;8829;47.932;7.810;2023-04-24T09:50:57;11.10;99.90
17423;DHT22;8829;47.932;7.810;2023-04-24T09:53:25;11.20;99.90
17423;DHT22;8829;47.932;7.810;2023-04-24T09:55:53;11.30;99.90
17423;DHT22;8829;47.932;7.810;2023-04-24T10:01:42;11.60;99.90
17423;DHT22;8829;47.932;7.810;2023-04-24T10:04:17;11.70;99.90
17423;DHT22;8829;47.932;7.810;2023-04-24T10:06:45;11.90;99.90
17423;DHT22;8829;47.932;7.810;2023-04-24T10:09:12;11.80;99.90
17423;DHT22;8829;47.932;7.810;2023-04-24T10:11:44;11.70;99.90
17423;DHT22;8829;47.932;7.810;2023-04-24T10:14:13;11.80;99.90
17423;DHT22;8829;47.932;7.810;2023-04-24T10:16:40;11.90;99.90
17423;DHT22;8829;47.932;7.810;2023-04-24T10:19:07;12.10;99.90
17423;DHT22;8829;47.932;7.810;2023-04-24T10:21:34;12.00;99.90
17423;DHT22;8829;47.932;7.810;2023-04-24T10:24:03;12.20;99.90
17423;DHT22;8829;47.932;7.810;2023-04-24T10:26:32;12.30;99.90
17423;DHT22;8829;47.932;7.810;2023-04-24T10:29:01;12.40;99.90
17423;DHT22;8829;47.932;7.810;2023-04-24T10:31:31;12.30;99.90
17423;DHT22;8829;47.932;7.810;2023-04-24T10:33:58;12.30;99.90
17423;DHT22;8829;47.932;7.810;2023-04-24T10:36:27;12.10;99.90
17423;DHT22;8829;47.932;7.810;2023-04-24T10:38:59;12.00;99.90
17423;DHT22;8829;47.932;7.810;2023-04-24T10:41:26;12.00;99.90
17423;DHT22;8829;47.932;7.810;2023-04-24T10:44:05;12.20;99.90
17423;DHT22;8829;47.932;7.810;2023-04-24T10:46:33;12.30;99.90
17423;DHT22;8829;47.932;7.810;2023-04-24T10:49:03;12.50;99.90
17423;DHT22;8829;47.932;7.810;2023-04-24T10:51:45;12.60;99.90
17423;DHT22;8829;47.932;7.810;2023-04-24T10:54:26;12.50;99.90
17423;DHT22;8829;47.932;7.810;2023-04-24T10:56:53;12.60;99.90
17423;DHT22;8829;47.932;7.810;2023-04-24T10:59:41;12.70;99.90
17423;DHT22;8829;47.932;7.810;2023-04-24T11:02:08;12.90;99.90
17423;DHT22;8829;47.932;7.810;2023-04-24T11:04:35;12.70;99.90
17423;DHT22;8829;47.932;7.810;2023-04-24T11:07:03;12.50;99.90
17423;DHT22;8829;47.932;7.810;2023-04-24T11:09:30;12.40;99.90
17423;DHT22;8829;47.932;7.810;2023-04-24T11:12:04;12.30;99.90
17423;DHT22;8829;47.932;7.810;2023-04-24T11:15:01;12.30;99.90
17423;DHT22;8829;47.932;7.810;2023-04-24T11:17:33;12.10;99.90
17423;DHT22;8829;47.932;7.810;2023-04-24T11:20:03;11.90;99.90
17423;DHT22;8829;47.932;7.810;2023-04-24T11:22:33;11.80;99.90
17423;DHT22;8829;47.932;7.810;2023-04-24T11:25:01;11.80;99.90
17423;DHT22;8829;47.932;7.810;2023-04-24T11:27:30;11.80;99.90
17423;DHT22;8829;47.932;7.810;2023-04-24T11:30:03;11.90;99.90
17423;DHT22;8829;47.932;7.810;2023-04-24T11:32:34;11.80;99.90
17423;DHT22;8829;47.932;7.810;2023-04-24T11:35:02;11.90;99.90
17423;DHT22;8829;47.932;7.810;2023-04-24T11:37:33;11.80;99.90
17423;DHT22;8829;47.932;7.810;2023-04-24T11:40:01;12.00;99.90
17423;DHT22;8829;47.932;7.810;2023-04-24T11:42:28;12.60;99.90
17423;DHT22;8829;47.932;7.810;2023-04-24T11:44:59;12.40;99.90
17423;DHT22;8829;47.932;7.810;2023-04-24T11:47:32;12.50;99.90
17423;DHT22;8829;47.932;7.810;2023-04-24T11:49:59;12.70;99.90
17423;DHT22;8829;47.932;7.810;2023-04-24T11:52:26;12.80;99.90
17423;DHT22;8829;47.932;7.810;2023-04-24T11:54:53;12.90;99.90
17423;DHT22;8829;47.932;7.810;2023-04-24T11:57:20;12.90;99.90
17423;DHT22;8829;47.932;7.810;2023-04-24T11:59:48;12.80;99.90
17423;DHT22;8829;47.932;7.810;2023-04-24T12:02:25;12.70;99.90
17423;DHT22;8829;47.932;7.810;2023-04-24T12:04:54;12.60;99.90
17423;DHT22;8829;47.932;7.810;2023-04-24T12:07:21;12.50;99.90
17423;DHT22;8829;47.932;7.810;2023-04-24T12:09:55;12.70;99.90
17423;DHT22;8829;47.932;7.810;2023-04-24T12:12:25;12.60;99.90
17423;DHT22;8829;47.932;7.810;2023-04-24T12:14:53;12.50;99.90
17423;DHT22;8829;47.932;7.810;2023-04-24T12:17:24;12.60;99.90
17423;DHT22;8829;47.932;7.810;2023-04-24T12:19:57;12.80;99.90
17423;DHT22;8829;47.932;7.810;2023-04-24T12:22:24;12.90;99.90
17423;DHT22;8829;47.932;7.810;2023-04-24T12:24:58;13.10;99.90
17423;DHT22;8829;47.932;7.810;2023-04-24T12:27:26;13.30;99.90
17423;DHT22;8829;47.932;7.810;2023-04-24T12:29:53;13.30;99.90
17423;DHT22;8829;47.932;7.810;2023-04-24T12:32:20;13.50;99.90
17423;DHT22;8829;47.932;7.810;2023-04-24T12:34:46;13.70;99.90
17423;DHT22;8829;47.932;7.810;2023-04-24T12:37:15;13.90;99.90
17423;DHT22;8829;47.932;7.810;2023-04-24T12:39:58;14.50;99.90
17423;DHT22;8829;47.932;7.810;2023-04-24T12:42:26;14.00;99.90
17423;DHT22;8829;47.932;7.810;2023-04-24T12:44:56;14.00;99.90
17423;DHT22;8829;47.932;7.810;2023-04-24T12:47:24;14.00;99.90
17423;DHT22;8829;47.932;7.810;2023-04-24T12:49:50;14.00;99.90
17423;DHT22;8829;47.932;7.810;2023-04-24T12:52:19;13.70;99.90
17423;DHT22;8829;47.932;7.810;2023-04-24T12:54:47;13.60;99.90
17423;DHT22;8829;47.932;7.810;2023-04-24T12:57:14;13.70;99.90
17423;DHT22;8829;47.932;7.810;2023-04-24T12:59:40;13.60;99.90
17423;DHT22;8829;47.932;7.810;2023-04-24T13:02:07;13.60;99.90
17423;DHT22;8829;47.932;7.810;2023-04-24T13:04:34;13.70;99.90
17423;DHT22;8829;47.932;7.810;2023-04-24T13:07:01;13.70;99.90
17423;DHT22;8829;47.932;7.810;2023-04-24T13:09:30;13.60;99.90
17423;DHT22;8829;47.932;7.810;2023-04-24T13:11:57;13.60;99.90
17423;DHT22;8829;47.932;7.810;2023-04-24T13:14:23;13.40;99.90
17423;DHT22;8829;47.932;7.810;2023-04-24T13:16:50;13.40;99.90
17423;DHT22;8829;47.932;7.810;2023-04-24T13:19:18;13.40;99.90
17423;DHT22;8829;47.932;7.810;2023-04-24T13:21:45;13.30;99.90
17423;DHT22;8829;47.932;7.810;2023-04-24T13:24:12;13.30;99.90
17423;DHT22;8829;47.932;7.810;2023-04-24T13:26:42;13.10;99.90
17423;DHT22;8829;47.932;7.810;2023-04-24T13:29:09;12.80;99.90
17423;DHT22;8829;47.932;7.810;2023-04-24T13:31:36;12.90;99.90
17423;DHT22;8829;47.932;7.810;2023-04-24T13:34:03;12.90;99.90
17423;DHT22;8829;47.932;7.810;2023-04-24T13:36:30;12.90;99.90
17423;DHT22;8829;47.932;7.810;2023-04-24T13:38:57;12.80;99.90
17423;DHT22;8829;47.932;7.810;2023-04-24T13:41:23;13.00;99.90
17423;DHT22;8829;47.932;7.810;2023-04-24T13:43:51;13.00;99.90
17423;DHT22;8829;47.932;7.810;2023-04-24T13:46:18;13.40;99.90
17423;DHT22;8829;47.932;7.810;2023-04-24T13:48:45;13.50;99.90
17423;DHT22;8829;47.932;7.810;2023-04-24T13:51:12;13.70;99.90
17423;DHT22;8829;47.932;7.810;2023-04-24T13:53:38;13.80;99.90
17423;DHT22;8829;47.932;7.810;2023-04-24T13:56:05;13.80;99.90
17423;DHT22;8829;47.932;7.810;2023-04-24T13:58:32;13.70;99.90
17423;DHT22;8829;47.932;7.810;2023-04-24T14:01:00;13.60;99.90
17423;DHT22;8829;47.932;7.810;2023-04-24T14:03:27;13.80;99.90
17423;DHT22;8829;47.932;7.810;2023-04-24T14:05:53;13.70;99.90
17423;DHT22;8829;47.932;7.810;2023-04-24T14:08:20;13.70;99.90
17423;DHT22;8829;47.932;7.810;2023-04-24T14:10:47;13.70;99.90
17423;DHT22;8829;47.932;7.810;2023-04-24T14:13:14;13.90;99.90
17423;DHT22;8829;47.932;7.810;2023-04-24T14:15:41;14.00;99.90
17423;DHT22;8829;47.932;7.810;2023-04-24T14:18:09;13.90;99.90
17423;DHT22;8829;47.932;7.810;2023-04-24T14:20:36;13.90;99.90
17423;DHT22;8829;47.932;7.810;2023-04-24T14:23:03;13.60;99.90
17423;DHT22;8829;47.932;7.810;2023-04-24T14:25:30;13.50;99.90
17423;DHT22;8829;47.932;7.810;2023-04-24T14:27:56;13.50;99.90
17423;DHT22;8829;47.932;7.810;2023-04-24T14:30:23;13.40;99.90
17423;DHT22;8829;47.932;7.810;2023-04-24T14:32:50;13.20;99.90
17423;DHT22;8829;47.932;7.810;2023-04-24T14:35:18;13.10;99.90
17423;DHT22;8829;47.932;7.810;2023-04-24T14:37:44;12.90;99.90
17423;DHT22;8829;47.932;7.810;2023-04-24T14:40:11;12.80;99.90
17423;DHT22;8829;47.932;7.810;2023-04-24T14:42:38;12.60;99.90
17423;DHT22;8829;47.932;7.810;2023-04-24T14:45:05;12.70;99.90
17423;DHT22;8829;47.932;7.810;2023-04-24T14:47:33;12.60;99.90
17423;DHT22;8829;47.932;7.810;2023-04-24T14:50:00;12.50;99.90
17423;DHT22;8829;47.932;7.810;2023-04-24T14:52:28;12.30;99.90
17423;DHT22;8829;47.932;7.810;2023-04-24T14:54:54;12.50;99.90
17423;DHT22;8829;47.932;7.810;2023-04-24T14:57:22;12.60;99.90
17423;DHT22;8829;47.932;7.810;2023-04-24T14:59:48;12.60;99.90
17423;DHT22;8829;47.932;7.810;2023-04-24T15:02:15;12.70;99.90
17423;DHT22;8829;47.932;7.810;2023-04-24T15:04:42;12.70;99.90
17423;DHT22;8829;47.932;7.810;2023-04-24T15:07:09;12.90;99.90
17423;DHT22;8829;47.932;7.810;2023-04-24T15:09:37;13.10;99.90
17423;DHT22;8829;47.932;7.810;2023-04-24T15:12:04;13.10;99.90
17423;DHT22;8829;47.932;7.810;2023-04-24T15:14:30;13.20;99.90
17423;DHT22;8829;47.932;7.810;2023-04-24T15:16:57;13.20;99.90
17423;DHT22;8829;47.932;7.810;2023-04-24T15:19:24;13.10;99.90
17423;DHT22;8829;47.932;7.810;2023-04-24T15:21:50;13.10;99.90
17423;DHT22;8829;47.932;7.810;2023-04-24T15:24:17;13.10;99.90
17423;DHT22;8829;47.932;7.810;2023-04-24T15:26:45;13.00;99.90
17423;DHT22;8829;47.932;7.810;2023-04-24T15:29:12;13.00;99.90
17423;DHT22;8829;47.932;7.810;2023-04-24T15:31:39;12.90;99.90
17423;DHT22;8829;47.932;7.810;2023-04-24T15:34:05;12.70;99.90
17423;DHT22;8829;47.932;7.810;2023-04-24T15:36:32;12.90;99.90
17423;DHT22;8829;47.932;7.810;2023-04-24T15:39:00;12.90;99.90
17423;DHT22;8829;47.932;7.810;2023-04-24T15:41:27;13.00;99.90
17423;DHT22;8829;47.932;7.810;2023-04-24T15:43:55;12.90;99.90
17423;DHT22;8829;47.932;7.810;2023-04-24T15:46:22;12.90;99.90
17423;DHT22;8829;47.932;7.810;2023-04-24T15:48:48;12.90;99.90
17423;DHT22;8829;47.932;7.810;2023-04-24T15:51:15;12.80;99.90